sensor_id;sensor_type;location;lat;lon;timestamp;temperature;humidity
75821;DHT22;64454;51.984;9.838;2023-02-15T00:01:41;6.70;2.50
75821;DHT22;64454;51.984;9.838;2023-02-15T00:04:11;6.70;5.60
75821;DHT22;64454;51.984;9.838;2023-02-15T00:06:41;6.70;7.90
75821;DHT22;64454;51.984;9.838;2023-02-15T00:09:08;6.80;7.20
75821;DHT22;64454;51.984;9.838;2023-02-15T00:11:36;6.80;1.00
75821;DHT22;64454;51.984;9.838;2023-02-15T00:14:07;6.80;1.00
75821;DHT22;64454;51.984;9.838;2023-02-15T00:16:37;6.70;1.00
75821;DHT22;64454;51.984;9.838;2023-02-15T00:19:05;6.60;1.00
75821;DHT22;64454;51.984;9.838;2023-02-15T00:21:35;6.40;1.00
75821;DHT22;64454;51.984;9.838;2023-02-15T00:24:05;6.30;1.00
75821;DHT22;64454;51.984;9.838;2023-02-15T00:26:33;6.20;1.00
75821;DHT22;64454;51.984;9.838;2023-02-15T00:29:00;6.10;1.00
75821;DHT22;64454;51.984;9.838;2023-02-15T00:31:29;6.00;1.00
75821;DHT22;64454;51.984;9.838;2023-02-15T00:34:01;5.90;3.10
75821;DHT22;64454;51.984;9.838;2023-02-15T00:36:29;5.90;10.60
75821;DHT22;64454;51.984;9.838;2023-02-15T00:38:57;5.80;19.20
75821;DHT22;64454;51.984;9.838;2023-02-15T00:41:24;5.60;28.40
75821;DHT22;64454;51.984;9.838;2023-02-15T00:43:51;5.50;38.20
75821;DHT22;64454;51.984;9.838;2023-02-15T00:46:18;5.50;50.70
75821;DHT22;64454;51.984;9.838;2023-02-15T00:48:45;5.40;70.60
75821;DHT22;64454;51.984;9.838;2023-02-15T00:51:11;5.50;84.00
75821;DHT22;64454;51.984;9.838;2023-02-15T00:53:38;5.60;84.40
75821;DHT22;64454;51.984;9.838;2023-02-15T00:56:07;5.70;71.20
75821;DHT22;64454;51.984;9.838;2023-02-15T00:58:33;5.80;54.50
75821;DHT22;64454;51.984;9.838;2023-02-15T01:01:03;5.80;44.60
75821;DHT22;64454;51.984;9.838;2023-02-15T01:03:31;6.00;37.60
75821;DHT22;64454;51.984;9.838;2023-02-15T01:05:59;6.00;24.90
75821;DHT22;64454;51.984;9.838;2023-02-15T01:08:26;6.10;10.00
75821;DHT22;64454;51.984;9.838;2023-02-15T01:10:53;6.10;1.00
75821;DHT22;64454;51.984;9.838;2023-02-15T01:13:22;6.10;1.00
75821;DHT22;64454;51.984;9.838;2023-02-15T01:15:53;6.10;1.00
75821;DHT22;64454;51.984;9.838;2023-02-15T01:18:20;6.10;1.00
75821;DHT22;64454;51.984;9.838;2023-02-15T01:20:48;6.10;1.00
75821;DHT22;64454;51.984;9.838;2023-02-15T01:23:16;6.10;1.00
75821;DHT22;64454;51.984;9.838;2023-02-15T01:25:42;6.10;1.00
75821;DHT22;64454;51.984;9.838;2023-02-15T01:28:09;6.20;1.00
75821;DHT22;64454;51.984;9.838;2023-02-15T01:30:38;6.20;1.00
75821;DHT22;64454;51.984;9.838;2023-02-15T01:33:05;6.10;1.00
75821;DHT22;64454;51.984;9.838;2023-02-15T01:35:32;6.00;1.00
75821;DHT22;64454;51.984;9.838;2023-02-15T01:37:59;6.00;1.00
75821;DHT22;64454;51.984;9.838;2023-02-15T01:40:26;5.90;1.00
75821;DHT22;64454;51.984;9.838;2023-02-15T01:42:53;5.80;1.00
75821;DHT22;64454;51.984;9.838;2023-02-15T01:45:23;5.70;1.00
75821;DHT22;64454;51.984;9.838;2023-02-15T01:47:56;5.70;1.00
75821;DHT22;64454;51.984;9.838;2023-02-15T01:50:29;5.60;1.00
75821;DHT22;64454;51.984;9.838;2023-02-15T01:53:05;5.70;1.00
75821;DHT22;64454;51.984;9.838;2023-02-15T01:55:45;5.70;1.00
75821;DHT22;64454;51.984;9.838;2023-02-15T01:58:14;5.70;1.00
75821;DHT22;64454;51.984;9.838;2023-02-15T02:00:42;5.70;1.00
75821;DHT22;64454;51.984;9.838;2023-02-15T02:03:11;5.70;1.00
75821;DHT22;64454;51.984;9.838;2023-02-15T02:05:39;5.70;1.00
75821;DHT22;64454;51.984;9.838;2023-02-15T02:08:08;5.70;1.00
75821;DHT22;64454;51.984;9.838;2023-02-15T02:10:36;5.70;1.00
75821;DHT22;64454;51.984;9.838;2023-02-15T02:13:05;5.70;1.00
75821;DHT22;64454;51.984;9.838;2023-02-15T02:15:39;5.60;1.00
75821;DHT22;64454;51.984;9.838;2023-02-15T02:18:23;5.60;1.00
75821;DHT22;64454;51.984;9.838;2023-02-15T02:24:45;5.60;1.00
75821;DHT22;64454;51.984;9.838;2023-02-15T02:27:35;5.60;1.00
75821;DHT22;64454;51.984;9.838;2023-02-15T02:33:42;5.50;1.00
75821;DHT22;64454;51.984;9.838;2023-02-15T02:36:25;5.60;1.00
75821;DHT22;64454;51.984;9.838;2023-02-15T02:39:12;5.50;1.00
75821;DHT22;64454;51.984;9.838;2023-02-15T02:41:55;5.50;1.00
75821;DHT22;64454;51.984;9.838;2023-02-15T02:44:27;5.50;1.00
75821;DHT22;64454;51.984;9.838;2023-02-15T02:46:59;5.40;1.00
75821;DHT22;64454;51.984;9.838;2023-02-15T02:49:34;5.40;1.00
75821;DHT22;64454;51.984;9.838;2023-02-15T02:52:04;5.40;1.00
75821;DHT22;64454;51.984;9.838;2023-02-15T02:54:34;5.40;1.00
75821;DHT22;64454;51.984;9.838;2023-02-15T02:57:04;5.30;1.00
75821;DHT22;64454;51.984;9.838;2023-02-15T02:59:37;5.30;1.00
75821;DHT22;64454;51.984;9.838;2023-02-15T03:02:13;5.20;1.00
75821;DHT22;64454;51.984;9.838;2023-02-15T03:04:49;5.10;1.00
75821;DHT22;64454;51.984;9.838;2023-02-15T03:07:25;5.00;1.00
75821;DHT22;64454;51.984;9.838;2023-02-15T03:09:58;4.90;1.00
75821;DHT22;64454;51.984;9.838;2023-02-15T03:12:28;4.90;1.00
75821;DHT22;64454;51.984;9.838;2023-02-15T03:15:00;4.80;3.20
75821;DHT22;64454;51.984;9.838;2023-02-15T03:17:32;4.80;9.30
75821;DHT22;64454;51.984;9.838;2023-02-15T03:20:06;4.80;12.50
75821;DHT22;64454;51.984;9.838;2023-02-15T03:22:38;4.80;13.20
75821;DHT22;64454;51.984;9.838;2023-02-15T03:25:11;4.80;12.70
75821;DHT22;64454;51.984;9.838;2023-02-15T03:27:45;4.70;12.20
75821;DHT22;64454;51.984;9.838;2023-02-15T03:30:18;4.60;15.70
75821;DHT22;64454;51.984;9.838;2023-02-15T03:32:48;4.60;19.50
75821;DHT22;64454;51.984;9.838;2023-02-15T03:35:19;4.60;26.50
75821;DHT22;64454;51.984;9.838;2023-02-15T03:37:51;4.60;26.80
75821;DHT22;64454;51.984;9.838;2023-02-15T03:40:25;4.70;25.20
75821;DHT22;64454;51.984;9.838;2023-02-15T03:43:17;4.70;22.40
75821;DHT22;64454;51.984;9.838;2023-02-15T03:45:53;4.90;23.80
75821;DHT22;64454;51.984;9.838;2023-02-15T03:48:25;4.70;18.10
75821;DHT22;64454;51.984;9.838;2023-02-15T03:50:59;4.70;18.90
75821;DHT22;64454;51.984;9.838;2023-02-15T03:53:47;4.70;20.60
75821;DHT22;64454;51.984;9.838;2023-02-15T03:56:15;4.70;24.30
75821;DHT22;64454;51.984;9.838;2023-02-15T03:58:42;4.80;22.50
75821;DHT22;64454;51.984;9.838;2023-02-15T04:01:32;4.80;9.80
75821;DHT22;64454;51.984;9.838;2023-02-15T04:04:21;4.80;1.00
75821;DHT22;64454;51.984;9.838;2023-02-15T04:06:51;4.70;1.00
75821;DHT22;64454;51.984;9.838;2023-02-15T04:09:20;4.60;1.00
75821;DHT22;64454;51.984;9.838;2023-02-15T04:12:05;4.50;1.00
75821;DHT22;64454;51.984;9.838;2023-02-15T04:14:32;4.50;1.60
75821;DHT22;64454;51.984;9.838;2023-02-15T04:17:16;4.50;8.80
75821;DHT22;64454;51.984;9.838;2023-02-15T04:19:43;4.50;10.70
75821;DHT22;64454;51.984;9.838;2023-02-15T04:22:29;4.50;4.20
75821;DHT22;64454;51.984;9.838;2023-02-15T04:25:13;4.50;2.90
75821;DHT22;64454;51.984;9.838;2023-02-15T04:27:42;4.50;1.00
75821;DHT22;64454;51.984;9.838;2023-02-15T04:30:12;4.50;1.00
75821;DHT22;64454;51.984;9.838;2023-02-15T04:32:40;4.50;1.00
75821;DHT22;64454;51.984;9.838;2023-02-15T04:35:07;4.50;1.00
75821;DHT22;64454;51.984;9.838;2023-02-15T04:37:36;4.50;1.00
75821;DHT22;64454;51.984;9.838;2023-02-15T04:40:05;4.50;1.00
75821;DHT22;64454;51.984;9.838;2023-02-15T04:42:34;4.50;1.00
75821;DHT22;64454;51.984;9.838;2023-02-15T04:45:00;4.50;1.00
75821;DHT22;64454;51.984;9.838;2023-02-15T04:47:27;4.50;1.00
75821;DHT22;64454;51.984;9.838;2023-02-15T04:49:54;4.50;1.00
75821;DHT22;64454;51.984;9.838;2023-02-15T04:52:21;4.40;1.00
75821;DHT22;64454;51.984;9.838;2023-02-15T04:54:50;4.30;1.00
75821;DHT22;64454;51.984;9.838;2023-02-15T04:57:16;4.20;1.00
75821;DHT22;64454;51.984;9.838;2023-02-15T04:59:43;4.10;1.00
75821;DHT22;64454;51.984;9.838;2023-02-15T05:02:10;3.90;1.00
75821;DHT22;64454;51.984;9.838;2023-02-15T05:04:37;3.70;1.00
75821;DHT22;64454;51.984;9.838;2023-02-15T05:07:04;3.50;6.60
75821;DHT22;64454;51.984;9.838;2023-02-15T05:09:30;3.50;18.80
75821;DHT22;64454;51.984;9.838;2023-02-15T05:11:58;3.50;29.70
75821;DHT22;64454;51.984;9.838;2023-02-15T05:14:25;3.70;28.50
75821;DHT22;64454;51.984;9.838;2023-02-15T05:16:52;3.70;19.60
75821;DHT22;64454;51.984;9.838;2023-02-15T05:19:20;3.70;14.10
75821;DHT22;64454;51.984;9.838;2023-02-15T05:21:49;3.70;1.30
75821;DHT22;64454;51.984;9.838;2023-02-15T05:24:17;3.60;1.00
75821;DHT22;64454;51.984;9.838;2023-02-15T05:27:03;3.60;6.80
75821;DHT22;64454;51.984;9.838;2023-02-15T05:29:47;3.60;13.30
75821;DHT22;64454;51.984;9.838;2023-02-15T05:32:14;3.60;14.40
75821;DHT22;64454;51.984;9.838;2023-02-15T05:34:41;3.70;14.60
75821;DHT22;64454;51.984;9.838;2023-02-15T05:37:08;3.80;12.40
75821;DHT22;64454;51.984;9.838;2023-02-15T05:39:35;3.70;1.00
75821;DHT22;64454;51.984;9.838;2023-02-15T05:42:03;3.60;1.00
75821;DHT22;64454;51.984;9.838;2023-02-15T05:44:30;3.50;1.00
75821;DHT22;64454;51.984;9.838;2023-02-15T05:46:57;3.40;1.00
75821;DHT22;64454;51.984;9.838;2023-02-15T05:49:24;3.40;8.30
75821;DHT22;64454;51.984;9.838;2023-02-15T05:51:51;3.40;14.70
75821;DHT22;64454;51.984;9.838;2023-02-15T05:54:19;3.50;17.40
75821;DHT22;64454;51.984;9.838;2023-02-15T05:56:47;3.50;16.20
75821;DHT22;64454;51.984;9.838;2023-02-15T05:59:16;3.60;12.30
75821;DHT22;64454;51.984;9.838;2023-02-15T06:01:45;3.60;4.70
75821;DHT22;64454;51.984;9.838;2023-02-15T06:04:12;3.60;1.00
75821;DHT22;64454;51.984;9.838;2023-02-15T06:06:39;3.70;1.00
75821;DHT22;64454;51.984;9.838;2023-02-15T06:09:06;3.70;1.00
75821;DHT22;64454;51.984;9.838;2023-02-15T06:11:33;3.50;1.00
75821;DHT22;64454;51.984;9.838;2023-02-15T06:14:00;3.40;1.00
75821;DHT22;64454;51.984;9.838;2023-02-15T06:16:28;3.30;1.00
75821;DHT22;64454;51.984;9.838;2023-02-15T06:18:55;3.10;1.00
75821;DHT22;64454;51.984;9.838;2023-02-15T06:21:22;3.10;8.50
75821;DHT22;64454;51.984;9.838;2023-02-15T06:23:49;3.00;13.10
75821;DHT22;64454;51.984;9.838;2023-02-15T06:26:16;3.00;18.90
75821;DHT22;64454;51.984;9.838;2023-02-15T06:28:42;2.90;23.00
75821;DHT22;64454;51.984;9.838;2023-02-15T06:31:09;2.80;29.50
75821;DHT22;64454;51.984;9.838;2023-02-15T06:33:37;2.80;33.40
75821;DHT22;64454;51.984;9.838;2023-02-15T06:36:04;2.80;33.10
75821;DHT22;64454;51.984;9.838;2023-02-15T06:38:31;2.70;35.20
75821;DHT22;64454;51.984;9.838;2023-02-15T06:40:58;2.60;41.20
75821;DHT22;64454;51.984;9.838;2023-02-15T06:43:25;2.50;55.40
75821;DHT22;64454;51.984;9.838;2023-02-15T06:45:52;2.50;69.10
75821;DHT22;64454;51.984;9.838;2023-02-15T06:48:19;2.50;72.30
75821;DHT22;64454;51.984;9.838;2023-02-15T06:50:47;2.50;74.50
75821;DHT22;64454;51.984;9.838;2023-02-15T06:53:14;2.40;82.50
75821;DHT22;64454;51.984;9.838;2023-02-15T06:55:41;2.30;99.90
75821;DHT22;64454;51.984;9.838;2023-02-15T06:58:08;2.30;99.90
75821;DHT22;64454;51.984;9.838;2023-02-15T07:00:35;2.40;99.90
75821;DHT22;64454;51.984;9.838;2023-02-15T07:03:02;2.40;99.90
75821;DHT22;64454;51.984;9.838;2023-02-15T07:05:33;2.40;99.90
75821;DHT22;64454;51.984;9.838;2023-02-15T07:08:02;2.40;99.90
75821;DHT22;64454;51.984;9.838;2023-02-15T07:10:29;2.30;99.90
75821;DHT22;64454;51.984;9.838;2023-02-15T07:12:56;2.30;99.90
75821;DHT22;64454;51.984;9.838;2023-02-15T07:15:22;2.30;99.90
75821;DHT22;64454;51.984;9.838;2023-02-15T07:17:49;2.20;99.90
75821;DHT22;64454;51.984;9.838;2023-02-15T07:20:18;2.20;99.90
75821;DHT22;64454;51.984;9.838;2023-02-15T07:22:47;2.20;99.90
75821;DHT22;64454;51.984;9.838;2023-02-15T07:25:16;2.20;99.90
75821;DHT22;64454;51.984;9.838;2023-02-15T07:27:43;2.20;99.90
75821;DHT22;64454;51.984;9.838;2023-02-15T07:30:13;2.20;99.90
75821;DHT22;64454;51.984;9.838;2023-02-15T07:32:42;2.30;99.90
75821;DHT22;64454;51.984;9.838;2023-02-15T07:35:23;2.40;99.90
75821;DHT22;64454;51.984;9.838;2023-02-15T07:37:49;2.50;99.90
75821;DHT22;64454;51.984;9.838;2023-02-15T07:40:19;2.60;99.90
75821;DHT22;64454;51.984;9.838;2023-02-15T07:42:48;2.60;99.90
75821;DHT22;64454;51.984;9.838;2023-02-15T07:45:17;2.60;99.90
75821;DHT22;64454;51.984;9.838;2023-02-15T07:47:44;2.70;99.90
75821;DHT22;64454;51.984;9.838;2023-02-15T07:50:11;2.80;99.90
75821;DHT22;64454;51.984;9.838;2023-02-15T07:52:38;2.80;99.90
75821;DHT22;64454;51.984;9.838;2023-02-15T07:55:05;2.90;99.90
75821;DHT22;64454;51.984;9.838;2023-02-15T07:57:35;3.00;99.90
75821;DHT22;64454;51.984;9.838;2023-02-15T08:00:02;3.10;99.90
75821;DHT22;64454;51.984;9.838;2023-02-15T08:02:30;3.20;99.90
75821;DHT22;64454;51.984;9.838;2023-02-15T08:04:57;3.30;99.90
75821;DHT22;64454;51.984;9.838;2023-02-15T08:07:23;3.50;99.90
75821;DHT22;64454;51.984;9.838;2023-02-15T08:09:50;3.70;98.50
75821;DHT22;64454;51.984;9.838;2023-02-15T08:12:17;3.90;60.70
75821;DHT22;64454;51.984;9.838;2023-02-15T08:14:45;4.00;40.00
75821;DHT22;64454;51.984;9.838;2023-02-15T08:17:12;4.30;34.70
75821;DHT22;64454;51.984;9.838;2023-02-15T08:19:39;4.80;35.50
75821;DHT22;64454;51.984;9.838;2023-02-15T08:22:07;5.40;18.30
75821;DHT22;64454;51.984;9.838;2023-02-15T08:24:38;5.70;1.00
75821;DHT22;64454;51.984;9.838;2023-02-15T08:27:06;5.60;1.00
75821;DHT22;64454;51.984;9.838;2023-02-15T08:29:36;5.70;1.00
75821;DHT22;64454;51.984;9.838;2023-02-15T08:32:08;5.50;1.00
75821;DHT22;64454;51.984;9.838;2023-02-15T08:34:39;5.40;1.00
75821;DHT22;64454;51.984;9.838;2023-02-15T08:37:07;5.30;1.00
75821;DHT22;64454;51.984;9.838;2023-02-15T08:39:34;5.10;1.00
75821;DHT22;64454;51.984;9.838;2023-02-15T08:42:01;5.00;1.00
75821;DHT22;64454;51.984;9.838;2023-02-15T08:44:28;5.00;1.00
75821;DHT22;64454;51.984;9.838;2023-02-15T08:46:55;5.00;1.00
75821;DHT22;64454;51.984;9.838;2023-02-15T08:49:29;5.00;1.00
75821;DHT22;64454;51.984;9.838;2023-02-15T08:51:56;5.10;1.00
75821;DHT22;64454;51.984;9.838;2023-02-15T08:54:22;5.30;1.00
75821;DHT22;64454;51.984;9.838;2023-02-15T08:56:49;5.70;1.00
75821;DHT22;64454;51.984;9.838;2023-02-15T08:59:18;5.90;1.00
75821;DHT22;64454;51.984;9.838;2023-02-15T09:01:48;6.70;1.00
75821;DHT22;64454;51.984;9.838;2023-02-15T09:04:17;7.90;1.00
75821;DHT22;64454;51.984;9.838;2023-02-15T09:06:48;9.50;1.00
75821;DHT22;64454;51.984;9.838;2023-02-15T09:09:17;10.80;1.00
75821;DHT22;64454;51.984;9.838;2023-02-15T09:11:46;12.20;1.00
75821;DHT22;64454;51.984;9.838;2023-02-15T09:14:17;13.00;1.00
75821;DHT22;64454;51.984;9.838;2023-02-15T09:16:47;13.50;1.00
75821;DHT22;64454;51.984;9.838;2023-02-15T09:19:19;14.00;1.00
75821;DHT22;64454;51.984;9.838;2023-02-15T09:21:48;15.40;1.00
75821;DHT22;64454;51.984;9.838;2023-02-15T09:24:18;16.10;1.00
75821;DHT22;64454;51.984;9.838;2023-02-15T09:26:46;16.30;1.00
75821;DHT22;64454;51.984;9.838;2023-02-15T09:29:16;16.50;1.00
75821;DHT22;64454;51.984;9.838;2023-02-15T09:31:46;17.60;1.00
75821;DHT22;64454;51.984;9.838;2023-02-15T09:34:17;18.00;1.00
75821;DHT22;64454;51.984;9.838;2023-02-15T09:36:46;19.10;1.00
75821;DHT22;64454;51.984;9.838;2023-02-15T09:39:16;20.60;1.00
75821;DHT22;64454;51.984;9.838;2023-02-15T09:42:04;21.30;1.00
75821;DHT22;64454;51.984;9.838;2023-02-15T09:45:05;21.80;1.00
75821;DHT22;64454;51.984;9.838;2023-02-15T09:51:03;22.10;1.00
75821;DHT22;64454;51.984;9.838;2023-02-15T09:53:54;21.40;1.00
75821;DHT22;64454;51.984;9.838;2023-02-15T09:56:41;20.40;1.00
75821;DHT22;64454;51.984;9.838;2023-02-15T09:59:19;19.70;1.00
75821;DHT22;64454;51.984;9.838;2023-02-15T10:02:02;19.50;1.00
75821;DHT22;64454;51.984;9.838;2023-02-15T10:04:53;18.70;1.00
75821;DHT22;64454;51.984;9.838;2023-02-15T10:07:44;19.40;1.00
75821;DHT22;64454;51.984;9.838;2023-02-15T10:10:39;19.90;1.00
75821;DHT22;64454;51.984;9.838;2023-02-15T10:13:24;20.80;1.00
75821;DHT22;64454;51.984;9.838;2023-02-15T10:16:13;19.80;1.00
75821;DHT22;64454;51.984;9.838;2023-02-15T10:18:55;19.30;1.00
75821;DHT22;64454;51.984;9.838;2023-02-15T10:21:43;20.00;1.00
75821;DHT22;64454;51.984;9.838;2023-02-15T10:27:29;20.90;1.00
75821;DHT22;64454;51.984;9.838;2023-02-15T10:30:08;20.40;1.00
75821;DHT22;64454;51.984;9.838;2023-02-15T10:32:40;20.40;1.00
75821;DHT22;64454;51.984;9.838;2023-02-15T10:35:24;20.80;1.00
75821;DHT22;64454;51.984;9.838;2023-02-15T10:38:08;21.40;1.00
75821;DHT22;64454;51.984;9.838;2023-02-15T10:40:47;22.20;1.00
75821;DHT22;64454;51.984;9.838;2023-02-15T10:43:41;21.20;1.00
75821;DHT22;64454;51.984;9.838;2023-02-15T10:46:40;22.00;1.00
75821;DHT22;64454;51.984;9.838;2023-02-15T10:49:35;23.00;1.00
75821;DHT22;64454;51.984;9.838;2023-02-15T10:52:25;24.10;1.00
75821;DHT22;64454;51.984;9.838;2023-02-15T10:55:08;24.70;1.00
75821;DHT22;64454;51.984;9.838;2023-02-15T10:57:47;24.10;1.00
75821;DHT22;64454;51.984;9.838;2023-02-15T11:00:29;24.00;1.00
75821;DHT22;64454;51.984;9.838;2023-02-15T11:03:22;23.90;1.00
75821;DHT22;64454;51.984;9.838;2023-02-15T11:06:02;22.20;1.00
75821;DHT22;64454;51.984;9.838;2023-02-15T11:08:39;20.80;1.00
75821;DHT22;64454;51.984;9.838;2023-02-15T11:11:11;19.50;1.00
75821;DHT22;64454;51.984;9.838;2023-02-15T11:13:46;18.40;1.00
75821;DHT22;64454;51.984;9.838;2023-02-15T11:16:18;17.50;1.00
75821;DHT22;64454;51.984;9.838;2023-02-15T11:18:53;16.30;1.00
75821;DHT22;64454;51.984;9.838;2023-02-15T11:21:26;15.20;1.00
75821;DHT22;64454;51.984;9.838;2023-02-15T11:23:54;14.60;1.00
75821;DHT22;64454;51.984;9.838;2023-02-15T11:26:26;14.20;1.00
75821;DHT22;64454;51.984;9.838;2023-02-15T11:29:00;13.80;1.00
75821;DHT22;64454;51.984;9.838;2023-02-15T11:31:41;13.30;1.00
75821;DHT22;64454;51.984;9.838;2023-02-15T11:34:18;13.10;1.00
75821;DHT22;64454;51.984;9.838;2023-02-15T11:36:54;12.70;1.00
75821;DHT22;64454;51.984;9.838;2023-02-15T11:39:26;12.50;1.00
75821;DHT22;64454;51.984;9.838;2023-02-15T11:42:00;12.50;1.00
75821;DHT22;64454;51.984;9.838;2023-02-15T11:44:33;12.10;1.00
75821;DHT22;64454;51.984;9.838;2023-02-15T11:47:08;11.90;1.00
75821;DHT22;64454;51.984;9.838;2023-02-15T11:49:39;11.30;1.00
75821;DHT22;64454;51.984;9.838;2023-02-15T11:52:08;11.10;1.00
75821;DHT22;64454;51.984;9.838;2023-02-15T11:54:41;11.10;1.00
75821;DHT22;64454;51.984;9.838;2023-02-15T11:57:14;11.00;1.00
75821;DHT22;64454;51.984;9.838;2023-02-15T11:59:48;11.40;1.00
75821;DHT22;64454;51.984;9.838;2023-02-15T12:02:21;11.70;1.00
75821;DHT22;64454;51.984;9.838;2023-02-15T12:04:52;11.90;1.00
75821;DHT22;64454;51.984;9.838;2023-02-15T12:07:25;12.20;1.00
75821;DHT22;64454;51.984;9.838;2023-02-15T12:10:00;12.50;1.00
75821;DHT22;64454;51.984;9.838;2023-02-15T12:12:33;12.30;1.00
75821;DHT22;64454;51.984;9.838;2023-02-15T12:15:03;12.30;1.00
75821;DHT22;64454;51.984;9.838;2023-02-15T12:17:34;12.10;1.00
75821;DHT22;64454;51.984;9.838;2023-02-15T12:20:21;12.20;1.00
75821;DHT22;64454;51.984;9.838;2023-02-15T12:22:53;12.40;1.00
75821;DHT22;64454;51.984;9.838;2023-02-15T12:25:32;12.50;1.00
75821;DHT22;64454;51.984;9.838;2023-02-15T12:28:02;12.20;1.00
75821;DHT22;64454;51.984;9.838;2023-02-15T12:30:32;12.40;1.00
75821;DHT22;64454;51.984;9.838;2023-02-15T12:33:07;12.50;1.00
75821;DHT22;64454;51.984;9.838;2023-02-15T12:35:44;13.00;1.00
75821;DHT22;64454;51.984;9.838;2023-02-15T12:38:22;13.50;1.00
75821;DHT22;64454;51.984;9.838;2023-02-15T12:40:58;13.20;1.00
75821;DHT22;64454;51.984;9.838;2023-02-15T12:43:27;13.30;1.00
75821;DHT22;64454;51.984;9.838;2023-02-15T12:46:14;13.60;1.00
75821;DHT22;64454;51.984;9.838;2023-02-15T12:48:47;14.30;1.00
75821;DHT22;64454;51.984;9.838;2023-02-15T12:51:42;14.60;1.00
75821;DHT22;64454;51.984;9.838;2023-02-15T12:54:28;15.20;1.00
75821;DHT22;64454;51.984;9.838;2023-02-15T12:56:57;16.50;1.00
75821;DHT22;64454;51.984;9.838;2023-02-15T12:59:25;17.80;1.00
75821;DHT22;64454;51.984;9.838;2023-02-15T13:01:52;18.90;1.00
75821;DHT22;64454;51.984;9.838;2023-02-15T13:04:25;20.50;1.00
75821;DHT22;64454;51.984;9.838;2023-02-15T13:06:59;21.40;1.00
75821;DHT22;64454;51.984;9.838;2023-02-15T13:09:37;22.20;1.00
75821;DHT22;64454;51.984;9.838;2023-02-15T13:12:11;23.30;1.00
75821;DHT22;64454;51.984;9.838;2023-02-15T13:14:45;24.20;1.00
75821;DHT22;64454;51.984;9.838;2023-02-15T13:17:17;24.60;1.00
75821;DHT22;64454;51.984;9.838;2023-02-15T13:19:50;23.60;1.00
75821;DHT22;64454;51.984;9.838;2023-02-15T13:22:24;23.50;1.00
75821;DHT22;64454;51.984;9.838;2023-02-15T13:24:57;23.30;1.00
75821;DHT22;64454;51.984;9.838;2023-02-15T13:27:34;23.70;1.00
75821;DHT22;64454;51.984;9.838;2023-02-15T13:30:14;24.20;1.00
75821;DHT22;64454;51.984;9.838;2023-02-15T13:32:49;24.70;1.00
75821;DHT22;64454;51.984;9.838;2023-02-15T13:35:20;25.00;1.00
75821;DHT22;64454;51.984;9.838;2023-02-15T13:40:50;25.50;1.00
75821;DHT22;64454;51.984;9.838;2023-02-15T13:43:34;24.70;1.00
75821;DHT22;64454;51.984;9.838;2023-02-15T13:46:15;25.00;1.00
75821;DHT22;64454;51.984;9.838;2023-02-15T13:48:55;24.00;1.00
75821;DHT22;64454;51.984;9.838;2023-02-15T13:51:35;22.90;1.00
75821;DHT22;64454;51.984;9.838;2023-02-15T13:54:27;22.10;1.00
75821;DHT22;64454;51.984;9.838;2023-02-15T13:57:18;22.60;1.00
75821;DHT22;64454;51.984;9.838;2023-02-15T14:00:02;22.40;1.00
75821;DHT22;64454;51.984;9.838;2023-02-15T14:02:59;23.00;1.00
75821;DHT22;64454;51.984;9.838;2023-02-15T14:06:09;23.70;1.00
75821;DHT22;64454;51.984;9.838;2023-02-15T14:08:53;24.10;1.00
75821;DHT22;64454;51.984;9.838;2023-02-15T14:11:35;23.80;1.00
75821;DHT22;64454;51.984;9.838;2023-02-15T14:14:29;24.00;1.00
75821;DHT22;64454;51.984;9.838;2023-02-15T14:17:14;24.20;1.00
75821;DHT22;64454;51.984;9.838;2023-02-15T14:19:51;23.80;1.00
75821;DHT22;64454;51.984;9.838;2023-02-15T14:22:27;22.80;1.00
75821;DHT22;64454;51.984;9.838;2023-02-15T14:25:12;22.00;1.00
75821;DHT22;64454;51.984;9.838;2023-02-15T14:27:54;21.10;1.00
75821;DHT22;64454;51.984;9.838;2023-02-15T14:30:28;19.90;1.00
75821;DHT22;64454;51.984;9.838;2023-02-15T14:33:01;18.80;1.00
75821;DHT22;64454;51.984;9.838;2023-02-15T14:35:33;17.80;1.00
75821;DHT22;64454;51.984;9.838;2023-02-15T14:38:09;16.60;1.00
75821;DHT22;64454;51.984;9.838;2023-02-15T14:40:50;15.50;1.00
75821;DHT22;64454;51.984;9.838;2023-02-15T14:43:40;14.60;1.00
75821;DHT22;64454;51.984;9.838;2023-02-15T14:46:21;13.90;1.00
75821;DHT22;64454;51.984;9.838;2023-02-15T14:48:56;13.50;1.00
75821;DHT22;64454;51.984;9.838;2023-02-15T14:51:57;13.30;1.00
75821;DHT22;64454;51.984;9.838;2023-02-15T14:54:59;13.10;1.00
75821;DHT22;64454;51.984;9.838;2023-02-15T14:57:27;12.90;1.00
75821;DHT22;64454;51.984;9.838;2023-02-15T14:59:59;12.50;1.00
75821;DHT22;64454;51.984;9.838;2023-02-15T15:02:43;12.40;1.00
75821;DHT22;64454;51.984;9.838;2023-02-15T15:05:18;12.40;1.00
75821;DHT22;64454;51.984;9.838;2023-02-15T15:07:49;12.20;1.00
75821;DHT22;64454;51.984;9.838;2023-02-15T15:10:40;12.10;1.00
75821;DHT22;64454;51.984;9.838;2023-02-15T15:13:35;12.10;1.00
75821;DHT22;64454;51.984;9.838;2023-02-15T15:16:25;11.90;1.00
75821;DHT22;64454;51.984;9.838;2023-02-15T15:18:57;11.80;1.00
75821;DHT22;64454;51.984;9.838;2023-02-15T15:21:53;11.80;1.00
75821;DHT22;64454;51.984;9.838;2023-02-15T15:24:47;11.70;1.00
75821;DHT22;64454;51.984;9.838;2023-02-15T15:27:42;11.70;1.00
75821;DHT22;64454;51.984;9.838;2023-02-15T15:30:47;11.60;1.00
75821;DHT22;64454;51.984;9.838;2023-02-15T15:40:42;12.50;1.00
75821;DHT22;64454;51.984;9.838;2023-02-15T15:46:57;12.90;1.00
75821;DHT22;64454;51.984;9.838;2023-02-15T15:49:37;13.00;1.00
75821;DHT22;64454;51.984;9.838;2023-02-15T15:52:14;12.50;1.00
75821;DHT22;64454;51.984;9.838;2023-02-15T15:54:46;12.00;1.00
75821;DHT22;64454;51.984;9.838;2023-02-15T15:57:18;11.70;1.00
75821;DHT22;64454;51.984;9.838;2023-02-15T15:59:52;11.50;1.00
75821;DHT22;64454;51.984;9.838;2023-02-15T16:02:19;11.20;1.00
75821;DHT22;64454;51.984;9.838;2023-02-15T16:04:48;11.00;1.00
75821;DHT22;64454;51.984;9.838;2023-02-15T16:07:26;11.00;1.00
75821;DHT22;64454;51.984;9.838;2023-02-15T16:09:59;11.00;1.00
75821;DHT22;64454;51.984;9.838;2023-02-15T16:12:29;10.90;1.00
75821;DHT22;64454;51.984;9.838;2023-02-15T16:14:57;10.80;1.00
75821;DHT22;64454;51.984;9.838;2023-02-15T16:17:30;10.70;1.00
75821;DHT22;64454;51.984;9.838;2023-02-15T16:20:03;10.50;1.00
75821;DHT22;64454;51.984;9.838;2023-02-15T16:22:34;10.40;1.00
75821;DHT22;64454;51.984;9.838;2023-02-15T16:25:23;10.20;1.00
75821;DHT22;64454;51.984;9.838;2023-02-15T16:28:06;10.20;1.00
75821;DHT22;64454;51.984;9.838;2023-02-15T16:30:35;10.10;1.00
75821;DHT22;64454;51.984;9.838;2023-02-15T16:33:06;10.00;1.00
75821;DHT22;64454;51.984;9.838;2023-02-15T16:35:36;9.90;1.00
75821;DHT22;64454;51.984;9.838;2023-02-15T16:38:05;9.70;1.00
75821;DHT22;64454;51.984;9.838;2023-02-15T16:40:41;9.60;1.00
75821;DHT22;64454;51.984;9.838;2023-02-15T16:43:18;9.50;1.00
75821;DHT22;64454;51.984;9.838;2023-02-15T16:45:49;9.40;1.00
75821;DHT22;64454;51.984;9.838;2023-02-15T16:48:20;9.20;1.00
75821;DHT22;64454;51.984;9.838;2023-02-15T16:50:52;9.10;1.00
75821;DHT22;64454;51.984;9.838;2023-02-15T16:53:24;9.00;1.00
75821;DHT22;64454;51.984;9.838;2023-02-15T16:55:55;8.90;1.00
75821;DHT22;64454;51.984;9.838;2023-02-15T16:58:31;8.80;1.00
75821;DHT22;64454;51.984;9.838;2023-02-15T17:01:06;8.60;1.00